Time,TemperatureF,DewpointF,PressureIn,WindDirection,WindDirectionDegrees,WindSpeedMPH,WindSpeedGustMPH,Humidity,HourlyPrecipIn,Conditions,Clouds,dailyrainin,SoftwareType,DateUTC
2013-09-13 00:04:00,58.3,57.4,29.91,SW,229,2.0,13.0,97,0.00,,,0.00,meteohub,2013-09-13 07:04:00,
2013-09-13 00:09:00,58.3,57.7,29.90,WSW,256,8.0,11.0,98,0.00,,,0.00,meteohub,2013-09-13 07:09:00,
2013-09-13 00:14:00,58.3,57.7,29.91,West,277,2.0,11.0,98,0.00,,,0.00,meteohub,2013-09-13 07:14:00,
2013-09-13 00:19:00,58.3,57.7,29.90,South,176,2.0,11.0,98,0.00,,,0.00,meteohub,2013-09-13 07:19:00,
2013-09-13 00:24:00,58.3,57.4,29.90,WNW,287,4.0,11.0,97,0.00,,,0.00,meteohub,2013-09-13 07:24:00,
2013-09-13 00:29:00,57.9,57.4,29.90,West,262,8.0,10.0,98,0.00,,,0.00,meteohub,2013-09-13 07:29:00,
2013-09-13 00:34:00,57.9,57.4,29.90,WSW,257,6.0,10.0,98,0.00,,,0.00,meteohub,2013-09-13 07:34:00,
2013-09-13 00:39:00,57.9,57.4,29.90,West,260,7.0,10.0,98,0.00,,,0.00,meteohub,2013-09-13 07:39:00,
2013-09-13 00:44:00,57.7,57.2,29.90,SW,231,7.0,10.0,98,0.00,,,0.00,meteohub,2013-09-13 07:44:00,
2013-09-13 00:49:00,57.7,57.2,29.90,West,273,7.0,11.0,98,0.00,,,0.00,meteohub,2013-09-13 07:49:00,
2013-09-13 00:54:00,57.7,57.2,29.90,West,274,3.0,11.0,98,0.00,,,0.00,meteohub,2013-09-13 07:54:00,
2013-09-13 00:59:00,57.7,57.2,29.90,West,273,10.0,11.0,98,0.00,,,0.00,meteohub,2013-09-13 07:59:00,
2013-09-13 01:05:00,57.7,57.2,29.90,West,277,5.0,11.0,98,0.00,,,0.00,meteohub,2013-09-13 08:05:00,
2013-09-13 01:10:00,57.7,57.2,29.90,WSW,258,8.0,11.0,98,0.00,,,0.00,meteohub,2013-09-13 08:10:00,
2013-09-13 01:15:00,57.7,57.2,29.90,West,272,6.0,13.0,98,0.00,,,0.00,meteohub,2013-09-13 08:15:00,
2013-09-13 01:20:00,57.7,57.2,29.90,West,260,8.0,13.0,98,0.00,,,0.00,meteohub,2013-09-13 08:20:00,
2013-09-13 01:25:00,57.7,57.2,29.90,West,274,13.0,13.0,98,0.00,,,0.00,meteohub,2013-09-13 08:25:00,
2013-09-13 01:30:00,57.7,57.2,29.90,WNW,300,5.0,13.0,98,0.00,,,0.00,meteohub,2013-09-13 08:30:00,
2013-09-13 01:35:00,57.7,57.2,29.90,WSW,243,7.0,15.0,98,0.00,,,0.00,meteohub,2013-09-13 08:35:00,
2013-09-13 01:40:00,57.6,57.0,29.90,West,272,7.0,15.0,98,0.00,,,0.00,meteohub,2013-09-13 08:40:00,
2013-09-13 01:45:00,57.7,57.2,29.90,WSW,243,9.0,15.0,98,0.00,,,0.00,meteohub,2013-09-13 08:45:00,
2013-09-13 01:50:00,57.7,57.2,29.90,WNW,282,2.0,13.0,98,0.00,,,0.00,meteohub,2013-09-13 08:50:00,
2013-09-13 01:55:00,57.7,57.2,29.90,West,268,8.0,14.0,98,0.00,,,0.00,meteohub,2013-09-13 08:55:00,
2013-09-13 02:00:00,57.7,57.2,29.90,WSW,255,5.0,14.0,98,0.00,,,0.00,meteohub,2013-09-13 09:00:00,
2013-09-13 02:05:00,57.7,57.2,29.91,WNW,282,8.0,14.0,98,0.00,,,0.00,meteohub,2013-09-13 09:05:00,
2013-09-13 02:10:00,57.7,57.2,29.91,West,264,9.0,13.0,98,0.00,,,0.00,meteohub,2013-09-13 09:10:00,
2013-09-13 02:15:00,57.7,57.2,29.90,South,176,6.0,13.0,98,0.00,,,0.00,meteohub,2013-09-13 09:15:00,
2013-09-13 02:20:00,57.7,57.2,29.90,West,279,5.0,13.0,98,0.00,,,0.00,meteohub,2013-09-13 09:20:00,
2013-09-13 02:25:00,57.7,57.2,29.90,WNW,284,0.0,13.0,98,0.00,,,0.00,meteohub,2013-09-13 09:25:00,
2013-09-13 02:30:00,57.7,57.2,29.90,West,269,9.0,13.0,98,0.00,,,0.00,meteohub,2013-09-13 09:30:00,
2013-09-13 02:35:00,57.7,57.2,29.90,WSW,252,4.0,13.0,98,0.00,,,0.00,meteohub,2013-09-13 09:35:00,
2013-09-13 02:40:00,57.7,57.2,29.90,WSW,245,3.0,13.0,98,0.00,,,0.00,meteohub,2013-09-13 09:40:00,
2013-09-13 02:45:00,57.7,57.2,29.89,WSW,250,7.0,12.0,98,0.00,,,0.00,meteohub,2013-09-13 09:45:00,
2013-09-13 02:50:00,57.7,57.2,29.89,WSW,256,6.0,14.0,98,0.00,,,0.00,meteohub,2013-09-13 09:50:00,
2013-09-13 02:55:00,57.7,57.2,29.89,WSW,238,4.0,14.0,98,0.00,,,0.00,meteohub,2013-09-13 09:55:00,
2013-09-13 03:00:00,57.7,57.2,29.89,SW,231,8.0,14.0,98,0.00,,,0.00,meteohub,2013-09-13 10:00:00,
2013-09-13 03:05:00,57.6,57.0,29.89,West,274,8.0,14.0,98,0.00,,,0.00,meteohub,2013-09-13 10:05:00,
2013-09-13 03:10:00,57.6,57.0,29.89,South,176,3.0,13.0,98,0.00,,,0.00,meteohub,2013-09-13 10:10:00,
2013-09-13 03:15:00,57.6,57.0,29.89,WSW,258,7.0,13.0,98,0.00,,,0.00,meteohub,2013-09-13 10:15:00,
2013-09-13 03:20:00,57.6,57.0,29.89,West,276,7.0,13.0,98,0.00,,,0.00,meteohub,2013-09-13 10:20:00,
2013-09-13 03:25:00,57.4,56.8,29.89,NW,304,1.0,11.0,98,0.00,,,0.00,meteohub,2013-09-13 10:25:00,
2013-09-13 03:30:00,57.2,56.7,29.89,West,271,8.0,14.0,98,0.00,,,0.00,meteohub,2013-09-13 10:30:00,
2013-09-13 03:35:00,57.2,56.7,29.89,South,176,6.0,14.0,98,0.00,,,0.00,meteohub,2013-09-13 10:35:00,
2013-09-13 03:40:00,57.0,56.5,29.89,WNW,283,3.0,13.0,98,0.00,,,0.00,meteohub,2013-09-13 10:40:00,
2013-09-13 03:45:00,57.4,56.8,29.88,West,274,2.0,12.0,98,0.00,,,0.00,meteohub,2013-09-13 10:45:00,
2013-09-13 03:50:00,57.4,56.8,29.88,West,269,1.0,12.0,98,0.00,,,0.00,meteohub,2013-09-13 10:50:00,
2013-09-13 03:55:00,57.4,56.8,29.88,West,272,5.0,11.0,98,0.00,,,0.00,meteohub,2013-09-13 10:55:00,
2013-09-13 04:00:00,57.4,56.8,29.88,West,266,6.0,11.0,98,0.00,,,0.00,meteohub,2013-09-13 11:00:00,
2013-09-13 04:05:00,57.4,56.8,29.88,West,275,5.0,11.0,98,0.00,,,0.00,meteohub,2013-09-13 11:05:00,
2013-09-13 04:10:00,57.4,56.8,29.88,NNW,335,4.0,11.0,98,0.00,,,0.00,meteohub,2013-09-13 11:10:00,
2013-09-13 04:15:00,57.4,56.8,29.88,WSW,248,5.0,15.0,98,0.00,,,0.00,meteohub,2013-09-13 11:15:00,
2013-09-13 04:20:00,57.2,56.7,29.88,WNW,301,2.0,15.0,98,0.00,,,0.00,meteohub,2013-09-13 11:20:00,
2013-09-13 04:26:00,57.2,56.7,29.88,WSW,252,5.0,14.0,98,0.00,,,0.00,meteohub,2013-09-13 11:26:00,
2013-09-13 04:31:00,57.4,56.8,29.88,SW,229,5.0,14.0,98,0.00,,,0.00,meteohub,2013-09-13 11:31:00,
2013-09-13 04:36:00,57.6,57.0,29.88,West,280,1.0,14.0,98,0.00,,,0.00,meteohub,2013-09-13 11:36:00,
2013-09-13 04:41:00,57.6,57.0,29.88,NW,308,0.0,14.0,98,0.00,,,0.00,meteohub,2013-09-13 11:41:00,
2013-09-13 04:46:00,57.6,57.0,29.88,West,274,2.0,14.0,98,0.00,,,0.00,meteohub,2013-09-13 11:46:00,
2013-09-13 04:51:00,57.6,57.0,29.88,WSW,244,2.0,14.0,98,0.00,,,0.00,meteohub,2013-09-13 11:51:00,
2013-09-13 04:56:00,57.7,57.2,29.88,South,176,5.0,13.0,98,0.00,,,0.00,meteohub,2013-09-13 11:56:00,
2013-09-13 05:01:00,57.7,57.2,29.88,WSW,247,5.0,12.0,98,0.00,,,0.00,meteohub,2013-09-13 12:01:00,
2013-09-13 05:06:00,57.7,57.2,29.88,WSW,239,1.0,12.0,98,0.00,,,0.00,meteohub,2013-09-13 12:06:00,
2013-09-13 05:11:00,57.7,57.2,29.88,West,271,0.0,12.0,98,0.00,,,0.00,meteohub,2013-09-13 12:11:00,
2013-09-13 05:16:00,57.7,57.2,29.88,NW,308,1.0,9.0,98,0.00,,,0.00,meteohub,2013-09-13 12:16:00,
2013-09-13 05:21:00,57.6,57.0,29.88,West,268,3.0,8.0,98,0.00,,,0.00,meteohub,2013-09-13 12:21:00,
2013-09-13 05:26:00,57.6,56.7,29.88,WSW,238,7.0,7.0,97,0.00,,,0.00,meteohub,2013-09-13 12:26:00,
2013-09-13 05:31:00,57.6,56.7,29.88,West,272,7.0,10.0,97,0.00,,,0.00,meteohub,2013-09-13 12:31:00,
2013-09-13 05:36:00,57.6,56.7,29.88,West,265,8.0,10.0,97,0.00,,,0.00,meteohub,2013-09-13 12:36:00,
2013-09-13 05:41:00,57.6,56.7,29.88,West,279,2.0,13.0,97,0.00,,,0.00,meteohub,2013-09-13 12:41:00,
2013-09-13 05:46:00,57.4,56.5,29.88,West,271,3.0,13.0,97,0.00,,,0.00,meteohub,2013-09-13 12:46:00,
2013-09-13 05:51:00,57.6,56.7,29.88,West,266,5.0,13.0,97,0.00,,,0.00,meteohub,2013-09-13 12:51:00,
2013-09-13 05:56:00,57.6,56.7,29.88,West,275,9.0,12.0,97,0.00,,,0.00,meteohub,2013-09-13 12:56:00,
2013-09-13 06:01:00,57.4,56.5,29.88,West,260,8.0,12.0,97,0.00,,,0.00,meteohub,2013-09-13 13:01:00,
2013-09-13 06:06:00,57.2,56.1,29.88,West,281,5.0,12.0,96,0.00,,,0.00,meteohub,2013-09-13 13:06:00,
2013-09-13 06:11:00,57.0,55.9,29.88,West,262,0.0,12.0,96,0.00,,,0.00,meteohub,2013-09-13 13:11:00,
2013-09-13 06:16:00,57.0,55.9,29.88,WSW,254,3.0,10.0,96,0.00,,,0.00,meteohub,2013-09-13 13:16:00,
2013-09-13 06:21:00,56.8,55.8,29.88,SW,235,3.0,10.0,96,0.00,,,0.00,meteohub,2013-09-13 13:21:00,
2013-09-13 06:26:00,56.8,55.8,29.88,West,270,6.0,9.0,96,0.00,,,0.00,meteohub,2013-09-13 13:26:00,
2013-09-13 06:31:00,56.7,55.6,29.88,WSW,256,2.0,10.0,96,0.00,,,0.00,meteohub,2013-09-13 13:31:00,
2013-09-13 06:36:00,56.7,55.8,29.88,West,262,2.0,10.0,97,0.00,,,0.00,meteohub,2013-09-13 13:36:00,
2013-09-13 06:41:00,56.7,55.6,29.88,WSW,252,7.0,10.0,96,0.00,,,0.00,meteohub,2013-09-13 13:41:00,
2013-09-13 06:46:00,56.5,55.6,29.88,WSW,256,5.0,10.0,97,0.00,,,0.00,meteohub,2013-09-13 13:46:00,
2013-09-13 06:51:00,56.5,55.6,29.89,West,277,6.0,11.0,97,0.00,,,0.00,meteohub,2013-09-13 13:51:00,
2013-09-13 06:56:00,56.1,55.2,29.89,SW,235,7.0,11.0,97,0.00,,,0.00,meteohub,2013-09-13 13:56:00,
2013-09-13 07:01:00,56.3,55.4,29.89,West,259,0.0,11.0,97,0.00,,,0.00,meteohub,2013-09-13 14:01:00,
2013-09-13 07:06:00,56.5,55.6,29.89,West,271,5.0,9.0,97,0.00,,,0.00,meteohub,2013-09-13 14:06:00,
2013-09-13 07:11:00,56.1,55.2,29.89,West,279,5.0,10.0,97,0.00,,,0.00,meteohub,2013-09-13 14:11:00,
2013-09-13 07:16:00,55.9,55.0,29.89,WSW,258,7.0,10.0,97,0.00,,,0.00,meteohub,2013-09-13 14:16:00,
2013-09-13 07:21:00,55.9,55.0,29.89,WSW,257,5.0,10.0,97,0.00,,,0.00,meteohub,2013-09-13 14:21:00,
2013-09-13 07:26:00,55.9,55.0,29.89,West,277,3.0,11.0,97,0.00,,,0.00,meteohub,2013-09-13 14:26:00,
2013-09-13 07:31:00,55.9,55.4,29.89,West,268,5.0,12.0,98,0.00,,,0.00,meteohub,2013-09-13 14:31:00,
2013-09-13 07:36:00,55.9,55.4,29.89,West,272,7.0,12.0,98,0.00,,,0.00,meteohub,2013-09-13 14:36:00,
2013-09-13 07:42:00,55.9,55.4,29.89,West,281,4.0,12.0,98,0.00,,,0.00,meteohub,2013-09-13 14:42:00,
2013-09-13 07:47:00,56.1,55.6,29.89,SW,221,6.0,11.0,98,0.00,,,0.00,meteohub,2013-09-13 14:47:00,
2013-09-13 07:52:00,55.9,55.4,29.89,West,272,7.0,11.0,98,0.00,,,0.00,meteohub,2013-09-13 14:52:00,
2013-09-13 07:57:00,55.9,55.4,29.89,SW,227,6.0,13.0,98,0.00,,,0.00,meteohub,2013-09-13 14:57:00,
2013-09-13 08:02:00,55.9,55.4,29.89,WNW,285,4.0,13.0,98,0.00,,,0.00,meteohub,2013-09-13 15:02:00,
2013-09-13 08:07:00,55.8,54.9,29.89,WSW,243,8.0,11.0,97,0.00,,,0.00,meteohub,2013-09-13 15:07:00,
2013-09-13 08:12:00,55.8,54.9,29.89,SW,227,5.0,12.0,97,0.00,,,0.00,meteohub,2013-09-13 15:12:00,
2013-09-13 08:17:00,55.8,54.9,29.89,West,261,8.0,13.0,97,0.00,,,0.00,meteohub,2013-09-13 15:17:00,
2013-09-13 08:22:00,55.9,55.4,29.89,WSW,251,5.0,13.0,98,0.00,,,0.00,meteohub,2013-09-13 15:22:00,
2013-09-13 08:27:00,55.9,55.4,29.89,West,270,5.0,13.0,98,0.00,,,0.00,meteohub,2013-09-13 15:27:00,
2013-09-13 08:32:00,55.9,55.4,29.89,WSW,252,3.0,12.0,98,0.00,,,0.00,meteohub,2013-09-13 15:32:00,
2013-09-13 08:37:00,55.8,54.9,29.90,SW,224,4.0,11.0,97,0.00,,,0.00,meteohub,2013-09-13 15:37:00,
2013-09-13 08:42:00,55.8,54.9,29.90,WSW,253,9.0,12.0,97,0.00,,,0.00,meteohub,2013-09-13 15:42:00,
2013-09-13 08:47:00,55.8,54.9,29.89,West,279,4.0,12.0,97,0.00,,,0.00,meteohub,2013-09-13 15:47:00,
2013-09-13 08:52:00,55.8,54.9,29.89,West,259,6.0,13.0,97,0.00,,,0.00,meteohub,2013-09-13 15:52:00,
2013-09-13 08:57:00,55.9,55.0,29.90,West,268,3.0,14.0,97,0.00,,,0.00,meteohub,2013-09-13 15:57:00,
2013-09-13 09:02:00,55.9,55.0,29.90,West,267,6.0,14.0,97,0.00,,,0.00,meteohub,2013-09-13 16:02:00,
2013-09-13 09:07:00,56.1,55.2,29.90,WSW,256,6.0,16.0,97,0.00,,,0.00,meteohub,2013-09-13 16:07:00,
2013-09-13 09:12:00,56.3,55.4,29.89,WSW,252,2.0,16.0,97,0.00,,,0.00,meteohub,2013-09-13 16:12:00,
2013-09-13 09:17:00,56.3,55.4,29.89,WSW,240,9.0,12.0,97,0.00,,,0.00,meteohub,2013-09-13 16:17:00,
2013-09-13 09:22:00,56.5,55.6,29.89,West,281,4.0,11.0,97,0.00,,,0.00,meteohub,2013-09-13 16:22:00,
2013-09-13 09:27:00,56.3,55.4,29.89,West,262,7.0,11.0,97,0.00,,,0.00,meteohub,2013-09-13 16:27:00,
2013-09-13 09:32:00,56.1,55.2,29.90,WNW,282,8.0,11.0,97,0.00,,,0.00,meteohub,2013-09-13 16:32:00,
2013-09-13 09:37:00,56.3,55.4,29.90,SW,236,11.0,12.0,97,0.00,,,0.00,meteohub,2013-09-13 16:37:00,
2013-09-13 09:42:00,56.5,55.6,29.90,West,272,9.0,15.0,97,0.00,,,0.00,meteohub,2013-09-13 16:42:00,
2013-09-13 09:47:00,56.7,55.8,29.90,WNW,288,10.0,15.0,97,0.00,,,0.00,meteohub,2013-09-13 16:47:00,
2013-09-13 09:52:00,56.7,55.6,29.90,WSW,250,10.0,15.0,96,0.00,,,0.00,meteohub,2013-09-13 16:52:00,
2013-09-13 09:57:00,56.7,55.8,29.90,WSW,254,4.0,13.0,97,0.00,,,0.00,meteohub,2013-09-13 16:57:00,
2013-09-13 10:02:00,56.8,55.9,29.90,WSW,252,8.0,13.0,97,0.00,,,0.00,meteohub,2013-09-13 17:02:00,
2013-09-13 10:07:00,57.0,56.1,29.89,West,266,6.0,13.0,97,0.00,,,0.00,meteohub,2013-09-13 17:07:00,
2013-09-13 10:12:00,57.0,55.9,29.89,West,264,7.0,14.0,96,0.00,,,0.00,meteohub,2013-09-13 17:12:00,
2013-09-13 10:17:00,57.0,55.9,29.89,SSE,165,5.0,14.0,96,0.00,,,0.00,meteohub,2013-09-13 17:17:00,
2013-09-13 10:22:00,57.4,56.3,29.89,WSW,250,7.0,14.0,96,0.00,,,0.00,meteohub,2013-09-13 17:22:00,
2013-09-13 10:27:00,57.6,56.5,29.89,West,263,6.0,16.0,96,0.00,,,0.00,meteohub,2013-09-13 17:27:00,
2013-09-13 10:32:00,57.7,56.7,29.89,WSW,237,7.0,16.0,96,0.00,,,0.00,meteohub,2013-09-13 17:32:00,
2013-09-13 10:37:00,57.7,56.7,29.89,WSW,253,8.0,16.0,96,0.00,,,0.00,meteohub,2013-09-13 17:37:00,
2013-09-13 10:42:00,57.9,56.8,29.89,West,260,3.0,13.0,96,0.00,,,0.00,meteohub,2013-09-13 17:42:00,
2013-09-13 10:47:00,58.5,57.0,29.89,West,264,6.0,13.0,95,0.00,,,0.00,meteohub,2013-09-13 17:47:00,
2013-09-13 10:52:00,58.6,57.2,29.89,SSW,200,4.0,12.0,95,0.00,,,0.00,meteohub,2013-09-13 17:52:00,
2013-09-13 10:57:00,58.6,56.8,29.89,West,259,7.0,12.0,94,0.00,,,0.00,meteohub,2013-09-13 17:57:00,
2013-09-13 11:02:00,58.6,56.8,29.88,West,259,8.0,13.0,94,0.00,,,0.00,meteohub,2013-09-13 18:02:00,
2013-09-13 11:07:00,58.8,57.0,29.88,SW,220,3.0,13.0,94,0.00,,,0.00,meteohub,2013-09-13 18:07:00,
2013-09-13 11:12:00,59.4,57.6,29.88,WSW,254,2.0,13.0,94,0.00,,,0.00,meteohub,2013-09-13 18:12:00,
2013-09-13 11:17:00,59.4,57.4,29.88,NW,306,3.0,11.0,93,0.00,,,0.00,meteohub,2013-09-13 18:17:00,
2013-09-13 11:22:00,59.5,57.6,29.88,SW,220,4.0,11.0,93,0.00,,,0.00,meteohub,2013-09-13 18:22:00,
2013-09-13 11:27:00,59.4,57.0,29.88,West,277,11.0,12.0,92,0.00,,,0.00,meteohub,2013-09-13 18:27:00,
2013-09-13 11:32:00,59.4,57.4,29.88,WSW,251,4.0,12.0,93,0.00,,,0.00,meteohub,2013-09-13 18:32:00,
2013-09-13 11:37:00,59.5,57.6,29.88,SSW,210,6.0,12.0,93,0.00,,,0.00,meteohub,2013-09-13 18:37:00,
2013-09-13 11:42:00,59.5,57.2,29.88,West,274,6.0,11.0,92,0.00,,,0.00,meteohub,2013-09-13 18:42:00,
2013-09-13 11:47:00,59.5,57.6,29.87,West,272,0.0,10.0,93,0.00,,,0.00,meteohub,2013-09-13 18:47:00,
2013-09-13 11:52:00,59.7,57.4,29.87,SW,232,5.0,10.0,92,0.00,,,0.00,meteohub,2013-09-13 18:52:00,
2013-09-13 11:57:00,59.7,57.4,29.87,West,270,1.0,10.0,92,0.00,,,0.00,meteohub,2013-09-13 18:57:00,
2013-09-13 12:02:00,59.9,57.6,29.87,SW,229,3.0,10.0,92,0.00,,,0.00,meteohub,2013-09-13 19:02:00,
2013-09-13 12:07:00,60.4,58.1,29.87,SW,228,4.0,9.0,92,0.00,,,0.00,meteohub,2013-09-13 19:07:00,
2013-09-13 12:12:00,60.6,57.9,29.87,WSW,241,3.0,9.0,91,0.00,,,0.00,meteohub,2013-09-13 19:12:00,
2013-09-13 12:17:00,60.4,57.6,29.87,SW,214,5.0,10.0,90,0.00,,,0.00,meteohub,2013-09-13 19:17:00,
2013-09-13 12:22:00,60.1,57.4,29.86,WSW,258,5.0,10.0,91,0.00,,,0.00,meteohub,2013-09-13 19:22:00,
2013-09-13 12:27:00,59.9,57.2,29.87,WSW,250,2.0,10.0,91,0.00,,,0.00,meteohub,2013-09-13 19:27:00,
2013-09-13 12:32:00,59.5,56.8,29.86,WSW,239,1.0,12.0,91,0.00,,,0.00,meteohub,2013-09-13 19:32:00,
2013-09-13 12:37:00,59.7,57.4,29.86,WSW,245,7.0,12.0,92,0.00,,,0.00,meteohub,2013-09-13 19:37:00,
2013-09-13 12:42:00,60.3,57.9,29.86,West,268,9.0,12.0,92,0.00,,,0.00,meteohub,2013-09-13 19:42:00,
2013-09-13 12:47:00,60.4,57.7,29.86,WSW,237,5.0,12.0,91,0.00,,,0.00,meteohub,2013-09-13 19:47:00,
2013-09-13 12:52:00,60.6,57.9,29.86,WSW,241,4.0,11.0,91,0.00,,,0.00,meteohub,2013-09-13 19:52:00,
2013-09-13 12:57:00,61.2,58.5,29.86,West,274,6.0,11.0,91,0.00,,,0.00,meteohub,2013-09-13 19:57:00,
2013-09-13 13:02:00,61.7,58.8,29.86,WNW,298,7.0,11.0,90,0.00,,,0.00,meteohub,2013-09-13 20:02:00,
2013-09-13 13:07:00,61.9,58.6,29.86,West,274,3.0,10.0,89,0.00,,,0.00,meteohub,2013-09-13 20:07:00,
2013-09-13 13:12:00,62.1,58.5,29.86,West,266,7.0,11.0,88,0.00,,,0.00,meteohub,2013-09-13 20:12:00,
2013-09-13 13:17:00,62.1,58.8,29.86,WNW,289,3.0,11.0,89,0.00,,,0.00,meteohub,2013-09-13 20:17:00,
2013-09-13 13:22:00,62.1,58.5,29.85,NW,305,2.0,14.0,88,0.00,,,0.00,meteohub,2013-09-13 20:22:00,
2013-09-13 13:27:00,61.9,58.6,29.85,West,266,9.0,14.0,89,0.00,,,0.00,meteohub,2013-09-13 20:27:00,
2013-09-13 13:32:00,61.3,58.1,29.85,West,267,9.0,14.0,89,0.00,,,0.00,meteohub,2013-09-13 20:32:00,
2013-09-13 13:37:00,61.2,58.3,29.85,West,262,5.0,13.0,90,0.00,,,0.00,meteohub,2013-09-13 20:37:00,
2013-09-13 13:42:00,61.5,58.6,29.85,West,266,5.0,15.0,90,0.00,,,0.00,meteohub,2013-09-13 20:42:00,
2013-09-13 13:47:00,62.2,59.0,29.84,WNW,285,2.0,15.0,89,0.00,,,0.00,meteohub,2013-09-13 20:47:00,
2013-09-13 13:52:00,62.6,59.0,29.84,WSW,245,10.0,15.0,88,0.00,,,0.00,meteohub,2013-09-13 20:52:00,
2013-09-13 13:57:00,61.5,57.9,29.84,NW,313,8.0,14.0,88,0.00,,,0.00,meteohub,2013-09-13 20:57:00,
2013-09-13 14:02:00,61.2,58.3,29.84,West,270,10.0,16.0,90,0.00,,,0.00,meteohub,2013-09-13 21:02:00,
2013-09-13 14:07:00,61.3,58.5,29.84,West,268,11.0,16.0,90,0.00,,,0.00,meteohub,2013-09-13 21:07:00,
2013-09-13 14:12:00,61.0,57.7,29.84,WSW,257,5.0,18.0,89,0.00,,,0.00,meteohub,2013-09-13 21:12:00,
2013-09-13 14:17:00,61.2,58.3,29.83,WSW,255,14.0,18.0,90,0.00,,,0.00,meteohub,2013-09-13 21:17:00,
2013-09-13 14:22:00,61.2,58.3,29.84,WNW,299,8.0,18.0,90,0.00,,,0.00,meteohub,2013-09-13 21:22:00,
2013-09-13 14:27:00,61.2,58.3,29.83,WSW,250,12.0,16.0,90,0.00,,,0.00,meteohub,2013-09-13 21:27:00,
2013-09-13 14:32:00,60.4,57.6,29.84,WSW,244,15.0,17.0,90,0.00,,,0.00,meteohub,2013-09-13 21:32:00,
2013-09-13 14:37:00,60.6,57.9,29.83,WSW,247,9.0,18.0,91,0.00,,,0.00,meteohub,2013-09-13 21:37:00,
2013-09-13 14:42:00,60.6,57.9,29.83,WSW,245,7.0,18.0,91,0.00,,,0.00,meteohub,2013-09-13 21:42:00,
2013-09-13 14:47:00,61.0,58.3,29.83,West,279,11.0,18.0,91,0.00,,,0.00,meteohub,2013-09-13 21:47:00,
2013-09-13 14:52:00,60.6,57.7,29.83,SW,233,10.0,19.0,90,0.00,,,0.00,meteohub,2013-09-13 21:52:00,
2013-09-13 14:57:00,60.4,57.7,29.83,West,263,11.0,21.0,91,0.00,,,0.00,meteohub,2013-09-13 21:57:00,
2013-09-13 15:02:00,60.3,57.6,29.83,WSW,254,8.0,21.0,91,0.00,,,0.00,meteohub,2013-09-13 22:02:00,
2013-09-13 15:07:00,60.1,57.4,29.83,West,266,9.0,21.0,91,0.00,,,0.00,meteohub,2013-09-13 22:07:00,
2013-09-13 15:12:00,60.1,57.7,29.83,West,270,13.0,18.0,92,0.00,,,0.00,meteohub,2013-09-13 22:12:00,
2013-09-13 15:17:00,60.3,57.9,29.82,West,279,9.0,18.0,92,0.00,,,0.00,meteohub,2013-09-13 22:17:00,
2013-09-13 15:22:00,60.4,57.7,29.83,WNW,286,8.0,18.0,91,0.00,,,0.00,meteohub,2013-09-13 22:22:00,
2013-09-13 15:27:00,60.6,57.9,29.82,SW,214,14.0,21.0,91,0.00,,,0.00,meteohub,2013-09-13 22:27:00,
2013-09-13 15:32:00,60.3,57.6,29.83,WSW,247,14.0,21.0,91,0.00,,,0.00,meteohub,2013-09-13 22:32:00,
2013-09-13 15:37:00,60.3,57.9,29.82,WSW,246,13.0,18.0,92,0.00,,,0.00,meteohub,2013-09-13 22:37:00,
2013-09-13 15:42:00,60.3,57.9,29.82,West,265,7.0,19.0,92,0.00,,,0.00,meteohub,2013-09-13 22:42:00,
2013-09-13 15:47:00,60.3,57.6,29.82,WNW,283,7.0,19.0,91,0.00,,,0.00,meteohub,2013-09-13 22:47:00,
2013-09-13 15:52:00,60.4,58.1,29.81,West,276,8.0,17.0,92,0.00,,,0.00,meteohub,2013-09-13 22:52:00,
2013-09-13 15:57:00,60.8,58.1,29.81,WSW,238,8.0,17.0,91,0.00,,,0.00,meteohub,2013-09-13 22:57:00,
2013-09-13 16:02:00,60.8,58.1,29.81,West,270,3.0,16.0,91,0.00,,,0.00,meteohub,2013-09-13 23:02:00,
2013-09-13 16:07:00,60.8,58.1,29.81,NW,306,7.0,17.0,91,0.00,,,0.00,meteohub,2013-09-13 23:07:00,
2013-09-13 16:12:00,60.6,58.3,29.81,WSW,239,8.0,18.0,92,0.00,,,0.00,meteohub,2013-09-13 23:12:00,
2013-09-13 16:17:00,60.6,57.9,29.81,SW,229,4.0,18.0,91,0.00,,,0.00,meteohub,2013-09-13 23:17:00,
2013-09-13 16:22:00,60.6,58.3,29.81,West,267,10.0,18.0,92,0.00,,,0.00,meteohub,2013-09-13 23:22:00,
2013-09-13 16:27:00,61.0,58.6,29.80,WSW,251,3.0,14.0,92,0.00,,,0.00,meteohub,2013-09-13 23:27:00,
2013-09-13 16:32:00,61.0,58.3,29.80,WSW,239,5.0,14.0,91,0.00,,,0.00,meteohub,2013-09-13 23:32:00,
2013-09-13 16:37:00,60.8,58.1,29.80,West,259,17.0,17.0,91,0.00,,,0.00,meteohub,2013-09-13 23:37:00,
2013-09-13 16:42:00,61.0,58.3,29.80,NNW,333,5.0,18.0,91,0.00,,,0.00,meteohub,2013-09-13 23:42:00,
2013-09-13 16:47:00,61.3,58.6,29.80,West,277,8.0,18.0,91,0.00,,,0.00,meteohub,2013-09-13 23:47:00,
2013-09-13 16:52:00,61.5,58.3,29.80,NNW,331,9.0,17.0,89,0.00,,,0.00,meteohub,2013-09-13 23:52:00,
2013-09-13 16:57:00,61.3,58.1,29.79,WSW,257,3.0,15.0,89,0.00,,,0.00,meteohub,2013-09-13 23:57:00,
2013-09-13 17:02:00,61.0,58.1,29.79,West,265,10.0,15.0,90,0.00,,,0.00,meteohub,2013-09-14 00:02:00,
2013-09-13 17:07:00,61.0,58.1,29.80,SW,218,11.0,17.0,90,0.00,,,0.00,meteohub,2013-09-14 00:07:00,
2013-09-13 17:12:00,60.4,57.7,29.79,WNW,302,6.0,17.0,91,0.00,,,0.00,meteohub,2013-09-14 00:12:00,
2013-09-13 17:17:00,60.3,57.6,29.79,West,262,9.0,17.0,91,0.00,,,0.00,meteohub,2013-09-14 00:17:00,
2013-09-13 17:22:00,60.1,57.4,29.79,West,269,2.0,15.0,91,0.00,,,0.00,meteohub,2013-09-14 00:22:00,
2013-09-13 17:27:00,59.9,57.6,29.79,NW,326,7.0,15.0,92,0.00,,,0.00,meteohub,2013-09-14 00:27:00,
2013-09-13 17:32:00,59.7,57.4,29.79,WSW,257,9.0,15.0,92,0.00,,,0.00,meteohub,2013-09-14 00:32:00,
2013-09-13 17:37:00,60.1,57.7,29.79,West,270,10.0,17.0,92,0.00,,,0.00,meteohub,2013-09-14 00:37:00,
2013-09-13 17:42:00,60.1,57.4,29.79,WNW,283,1.0,17.0,91,0.00,,,0.00,meteohub,2013-09-14 00:42:00,
2013-09-13 17:47:00,60.1,57.4,29.79,West,266,8.0,13.0,91,0.00,,,0.00,meteohub,2013-09-14 00:47:00,
2013-09-13 17:52:00,59.7,57.4,29.79,West,276,5.0,17.0,92,0.00,,,0.00,meteohub,2013-09-14 00:52:00,
2013-09-13 17:57:00,59.9,57.2,29.79,SW,227,3.0,17.0,91,0.00,,,0.00,meteohub,2013-09-14 00:57:00,
2013-09-13 18:02:00,59.9,57.6,29.78,West,275,3.0,17.0,92,0.00,,,0.00,meteohub,2013-09-14 01:02:00,
2013-09-13 18:07:00,59.7,57.4,29.79,WSW,256,17.0,17.0,92,0.00,,,0.00,meteohub,2013-09-14 01:07:00,
2013-09-13 18:12:00,59.4,57.0,29.78,SSW,202,6.0,19.0,92,0.00,,,0.00,meteohub,2013-09-14 01:12:00,
2013-09-13 18:17:00,59.4,57.0,29.78,SSW,212,2.0,19.0,92,0.00,,,0.00,meteohub,2013-09-14 01:17:00,
2013-09-13 18:22:00,59.4,57.0,29.78,SW,224,10.0,19.0,92,0.00,,,0.00,meteohub,2013-09-14 01:22:00,
2013-09-13 18:27:00,59.2,56.8,29.78,WNW,291,3.0,12.0,92,0.00,,,0.00,meteohub,2013-09-14 01:27:00,
2013-09-13 18:32:00,59.0,57.0,29.78,West,273,8.0,15.0,93,0.00,,,0.00,meteohub,2013-09-14 01:32:00,
2013-09-13 18:37:00,58.8,56.8,29.78,WSW,254,9.0,15.0,93,0.00,,,0.00,meteohub,2013-09-14 01:37:00,
2013-09-13 18:42:00,58.8,56.8,29.78,WNW,284,7.0,15.0,93,0.00,,,0.00,meteohub,2013-09-14 01:42:00,
2013-09-13 18:47:00,58.6,56.8,29.78,West,270,10.0,15.0,94,0.00,,,0.00,meteohub,2013-09-14 01:47:00,
2013-09-13 18:52:00,58.6,56.8,29.78,West,274,9.0,17.0,94,0.00,,,0.00,meteohub,2013-09-14 01:52:00,
2013-09-13 18:57:00,58.6,56.8,29.78,WSW,253,9.0,17.0,94,0.00,,,0.00,meteohub,2013-09-14 01:57:00,
2013-09-13 19:02:00,58.6,56.8,29.78,West,270,3.0,17.0,94,0.00,,,0.00,meteohub,2013-09-14 02:02:00,
2013-09-13 19:07:00,58.6,56.8,29.78,WSW,255,1.0,15.0,94,0.00,,,0.00,meteohub,2013-09-14 02:07:00,
2013-09-13 19:12:00,58.6,56.8,29.78,WSW,242,7.0,15.0,94,0.00,,,0.00,meteohub,2013-09-14 02:12:00,
2013-09-13 19:17:00,58.6,56.8,29.78,West,274,8.0,15.0,94,0.00,,,0.00,meteohub,2013-09-14 02:17:00,
2013-09-13 19:22:00,58.6,56.8,29.78,NW,310,6.0,14.0,94,0.00,,,0.00,meteohub,2013-09-14 02:22:00,
2013-09-13 19:27:00,58.6,56.8,29.78,NW,314,2.0,15.0,94,0.00,,,0.00,meteohub,2013-09-14 02:27:00,
2013-09-13 19:32:00,58.6,56.8,29.78,WSW,252,5.0,15.0,94,0.00,,,0.00,meteohub,2013-09-14 02:32:00,
2013-09-13 19:37:00,58.6,56.8,29.78,West,279,7.0,15.0,94,0.00,,,0.00,meteohub,2013-09-14 02:37:00,
2013-09-13 19:42:00,58.5,56.7,29.78,WSW,247,9.0,17.0,94,0.00,,,0.00,meteohub,2013-09-14 02:42:00,
2013-09-13 19:47:00,58.3,56.5,29.78,West,266,5.0,17.0,94,0.00,,,0.00,meteohub,2013-09-14 02:47:00,
2013-09-13 19:52:00,58.1,56.3,29.78,West,262,9.0,17.0,94,0.00,,,0.00,meteohub,2013-09-14 02:52:00,
2013-09-13 19:57:00,58.1,56.7,29.78,West,275,9.0,19.0,95,0.00,,,0.00,meteohub,2013-09-14 02:57:00,
2013-09-13 20:02:00,57.9,56.5,29.78,NW,304,7.0,19.0,95,0.00,,,0.00,meteohub,2013-09-14 03:02:00,
2013-09-13 20:07:00,57.7,56.3,29.78,West,261,8.0,17.0,95,0.00,,,0.00,meteohub,2013-09-14 03:07:00,
2013-09-13 20:12:00,57.7,56.3,29.78,WNW,291,7.0,17.0,95,0.00,,,0.00,meteohub,2013-09-14 03:12:00,
2013-09-13 20:17:00,57.7,56.3,29.78,WNW,282,10.0,17.0,95,0.00,,,0.00,meteohub,2013-09-14 03:17:00,
2013-09-13 20:22:00,57.7,56.3,29.78,WSW,242,5.0,16.0,95,0.00,,,0.00,meteohub,2013-09-14 03:22:00,
2013-09-13 20:27:00,57.6,56.1,29.78,West,266,7.0,16.0,95,0.00,,,0.00,meteohub,2013-09-14 03:27:00,
2013-09-13 20:32:00,57.6,56.5,29.78,West,277,6.0,14.0,96,0.00,,,0.00,meteohub,2013-09-14 03:32:00,
2013-09-13 20:37:00,57.6,56.5,29.78,West,260,7.0,16.0,96,0.00,,,0.00,meteohub,2013-09-14 03:37:00,
2013-09-13 20:42:00,57.4,56.3,29.78,West,274,9.0,16.0,96,0.00,,,0.00,meteohub,2013-09-14 03:42:00,
2013-09-13 20:47:00,57.4,56.3,29.78,West,264,7.0,16.0,96,0.00,,,0.00,meteohub,2013-09-14 03:47:00,
2013-09-13 20:52:00,57.4,56.3,29.78,West,268,9.0,18.0,96,0.00,,,0.00,meteohub,2013-09-14 03:52:00,
2013-09-13 20:57:00,57.4,56.3,29.79,SW,220,9.0,18.0,96,0.00,,,0.00,meteohub,2013-09-14 03:57:00,
2013-09-13 21:01:00,57.2,56.1,29.79,West,277,8.0,16.0,96,0.00,,,0.00,meteohub,2013-09-14 04:01:00,
2013-09-13 21:02:00,57.2,56.1,29.79,SW,228,9.0,16.0,96,0.00,,,0.00,meteohub,2013-09-14 04:02:00,
2013-09-13 21:05:00,57.0,56.1,29.79,West,259,8.0,22.0,97,0.00,,,0.00,meteohub,2013-09-14 04:05:00,
2013-09-13 21:10:00,57.0,56.1,29.79,WSW,255,10.0,22.0,97,0.00,,,0.00,meteohub,2013-09-14 04:10:00,
2013-09-13 21:15:00,57.0,56.1,29.79,SW,225,9.0,22.0,97,0.00,,,0.00,meteohub,2013-09-14 04:15:00,
2013-09-13 21:16:00,57.0,56.1,29.79,WSW,239,8.0,22.0,97,0.00,,,0.00,meteohub,2013-09-14 04:16:00,
2013-09-13 21:21:00,57.0,56.1,29.79,WNW,289,7.0,21.0,97,0.00,,,0.00,meteohub,2013-09-14 04:21:00,
2013-09-13 21:26:00,57.0,56.1,29.79,West,274,13.0,21.0,97,0.00,,,0.00,meteohub,2013-09-14 04:26:00,
2013-09-13 21:31:00,57.0,56.1,29.79,WSW,247,10.0,18.0,97,0.00,,,0.00,meteohub,2013-09-14 04:31:00,
2013-09-13 21:36:00,57.0,56.1,29.79,WSW,254,7.0,18.0,97,0.00,,,0.00,meteohub,2013-09-14 04:36:00,
2013-09-13 21:41:00,57.0,56.1,29.79,West,266,11.0,21.0,97,0.00,,,0.00,meteohub,2013-09-14 04:41:00,
2013-09-13 21:46:00,57.0,56.1,29.79,WNW,296,4.0,21.0,97,0.00,,,0.00,meteohub,2013-09-14 04:46:00,
2013-09-13 21:51:00,56.8,55.9,29.79,West,259,9.0,21.0,97,0.00,,,0.00,meteohub,2013-09-14 04:51:00,
2013-09-13 21:56:00,57.0,56.1,29.79,WSW,241,8.0,18.0,97,0.00,,,0.00,meteohub,2013-09-14 04:56:00,
2013-09-13 22:01:00,57.0,56.1,29.79,West,280,7.0,18.0,97,0.00,,,0.00,meteohub,2013-09-14 05:01:00,
2013-09-13 22:06:00,56.8,55.9,29.79,WNW,285,11.0,18.0,97,0.00,,,0.00,meteohub,2013-09-14 05:06:00,
2013-09-13 22:11:00,56.8,55.9,29.79,WSW,247,13.0,17.0,97,0.00,,,0.00,meteohub,2013-09-14 05:11:00,
2013-09-13 22:16:00,56.8,55.9,29.79,WNW,285,10.0,17.0,97,0.00,,,0.00,meteohub,2013-09-14 05:16:00,
2013-09-13 22:22:00,56.8,55.9,29.79,WSW,239,8.0,18.0,97,0.00,,,0.00,meteohub,2013-09-14 05:22:00,
2013-09-13 22:27:00,56.7,55.8,29.79,WSW,242,8.0,18.0,97,0.00,,,0.00,meteohub,2013-09-14 05:27:00,
2013-09-13 22:32:00,56.7,55.8,29.79,West,262,10.0,19.0,97,0.00,,,0.00,meteohub,2013-09-14 05:32:00,
2013-09-13 22:37:00,56.7,56.1,29.79,WSW,241,13.0,23.0,98,0.00,,,0.00,meteohub,2013-09-14 05:37:00,
2013-09-13 22:42:00,56.7,56.1,29.80,WSW,258,6.0,23.0,98,0.00,,,0.00,meteohub,2013-09-14 05:42:00,
2013-09-13 22:47:00,56.7,56.1,29.80,WSW,246,12.0,23.0,98,0.00,,,0.00,meteohub,2013-09-14 05:47:00,
2013-09-13 22:52:00,56.7,56.1,29.80,WSW,252,11.0,19.0,98,0.00,,,0.00,meteohub,2013-09-14 05:52:00,
2013-09-13 22:57:00,56.7,56.1,29.79,West,262,10.0,19.0,98,0.00,,,0.00,meteohub,2013-09-14 05:57:00,
2013-09-13 23:02:00,56.7,56.1,29.79,WSW,254,13.0,19.0,98,0.00,,,0.00,meteohub,2013-09-14 06:02:00,
2013-09-13 23:07:00,56.7,56.1,29.79,WSW,247,10.0,19.0,98,0.00,,,0.00,meteohub,2013-09-14 06:07:00,
2013-09-13 23:12:00,56.7,56.1,29.79,WNW,302,6.0,18.0,98,0.00,,,0.00,meteohub,2013-09-14 06:12:00,
2013-09-13 23:17:00,56.7,56.1,29.79,WSW,254,10.0,21.0,98,0.00,,,0.00,meteohub,2013-09-14 06:17:00,
2013-09-13 23:22:00,56.7,56.1,29.79,WSW,250,10.0,21.0,98,0.00,,,0.00,meteohub,2013-09-14 06:22:00,
2013-09-13 23:27:00,56.7,56.1,29.79,NW,316,5.0,16.0,98,0.00,,,0.00,meteohub,2013-09-14 06:27:00,
2013-09-13 23:32:00,56.7,56.1,29.80,WSW,250,12.0,16.0,98,0.00,,,0.00,meteohub,2013-09-14 06:32:00,
2013-09-13 23:37:00,56.7,56.1,29.79,SW,226,7.0,17.0,98,0.00,,,0.00,meteohub,2013-09-14 06:37:00,
2013-09-13 23:42:00,56.7,56.1,29.79,West,274,7.0,17.0,98,0.00,,,0.00,meteohub,2013-09-14 06:42:00,
2013-09-13 23:47:00,56.7,56.1,29.79,WSW,239,4.0,17.0,98,0.00,,,0.00,meteohub,2013-09-14 06:47:00,
2013-09-13 23:52:00,56.7,56.1,29.79,SW,232,7.0,17.0,98,0.00,,,0.00,meteohub,2013-09-14 06:52:00,
2013-09-13 23:57:00,56.5,55.9,29.79,SW,232,10.0,17.0,98,0.00,,,0.00,meteohub,2013-09-14 06:57:00,